Time;durP1;ratioP1;P1;durP2;ratioP2;P2;SDS_P1;SDS_P2;PMS_P1;PMS_P2;Temp;Humidity;BMP_temperature;BMP_pressure;BME280_temperature;BME280_humidity;BME280_pressure;Samples;Min_cycle;Max_cycle;Signal;HPM_P1;HPM_P2
2022/07/27 00:02:04;;;;;;;0.85;0.50;;;;;;;27.25;41.34;101830.44;5069404;28;20028;-66
2022/07/27 00:04:29;;;;;;;0.90;0.70;;;;;;;27.25;41.38;101835.78;5069073;28;20037;-66
2022/07/27 00:06:54;;;;;;;0.60;0.50;;;;;;;27.25;41.68;101829.56;5069078;28;20044;-66
2022/07/27 00:09:21;;;;;;;1.60;0.60;;;;;;;27.23;41.64;101832.31;5069233;28;20035;-66
2022/07/27 00:11:46;;;;;;;0.90;0.60;;;;;;;27.23;41.25;101826.06;5069216;28;20021;-66
2022/07/27 00:14:12;;;;;;;0.70;0.50;;;;;;;27.24;41.47;101826.03;5068952;28;20033;-66
2022/07/27 00:16:37;;;;;;;1.00;0.60;;;;;;;27.22;41.43;101817.16;5068952;28;20029;-66
2022/07/27 00:19:03;;;;;;;0.73;0.50;;;;;;;27.20;41.70;101820.88;5069223;28;20483;-67
2022/07/27 00:21:28;;;;;;;0.93;0.40;;;;;;;27.20;41.64;101818.19;5068066;28;20440;-66
2022/07/27 00:23:55;;;;;;;0.47;0.40;;;;;;;27.19;41.62;101817.31;5057822;28;20587;-67
2022/07/27 00:26:20;;;;;;;0.82;0.52;;;;;;;27.22;41.60;101829.69;5049060;28;20025;-66
2022/07/27 00:28:46;;;;;;;0.47;0.40;;;;;;;27.20;41.45;101823.53;5049324;28;20031;-66
2022/07/27 00:31:11;;;;;;;1.27;0.60;;;;;;;27.18;41.48;101820.91;5047726;28;20029;-66
2022/07/27 00:33:37;;;;;;;0.88;0.50;;;;;;;27.19;41.36;101822.66;5048713;28;20525;-67
2022/07/27 00:36:02;;;;;;;1.00;0.60;;;;;;;27.18;41.27;101822.72;5051571;28;20034;-66
2022/07/27 00:38:28;;;;;;;1.05;0.60;;;;;;;27.17;41.55;101820.97;5069022;28;20154;-66
2022/07/27 00:40:54;;;;;;;0.68;0.52;;;;;;;27.16;41.59;101820.09;5069189;28;20036;-66
2022/07/27 00:43:19;;;;;;;0.60;0.40;;;;;;;27.17;41.50;101829.88;5068565;28;20475;-67
2022/07/27 00:45:45;;;;;;;0.90;0.60;;;;;;;27.16;41.41;101821.91;5070983;28;20028;-66
2022/07/27 00:48:10;;;;;;;0.95;0.60;;;;;;;27.18;41.48;101822.72;5072940;28;20094;-66
2022/07/27 00:50:37;;;;;;;1.05;0.57;;;;;;;27.15;41.46;101818.34;5072779;28;20032;-66
2022/07/27 00:53:03;;;;;;;0.85;0.55;;;;;;;27.15;41.58;101820.16;5071546;28;20451;-66
2022/07/27 00:55:31;;;;;;;1.13;0.60;;;;;;;27.14;41.56;101816.59;5059492;28;20025;-67
2022/07/27 00:57:56;;;;;;;0.90;0.60;;;;;;;27.12;41.48;101815.81;5052730;28;20040;-66
2022/07/27 01:00:22;;;;;;;0.63;0.40;;;;;;;27.13;41.76;101814.88;5052805;28;20036;-66
2022/07/27 01:02:47;;;;;;;1.08;0.60;;;;;;;27.13;41.61;101809.53;5052734;28;20128;-66
2022/07/27 01:05:12;;;;;;;0.57;0.50;;;;;;;27.13;41.69;101814.00;5052105;28;20036;-66
2022/07/27 01:07:39;;;;;;;0.47;0.40;;;;;;;27.10;41.58;101815.00;5052670;28;20032;-67
2022/07/27 01:10:05;;;;;;;1.08;0.50;;;;;;;27.10;41.59;101815.00;5052666;28;20487;-66
2022/07/27 01:12:31;;;;;;;1.30;0.50;;;;;;;27.11;41.59;101819.41;5034981;28;20025;-66
2022/07/27 01:14:57;;;;;;;1.63;0.60;;;;;;;27.14;41.61;101813.06;5052035;28;20017;-66
2022/07/27 01:17:24;;;;;;;0.90;0.50;;;;;;;27.11;41.53;101815.88;5057167;28;20055;-66
2022/07/27 01:19:50;;;;;;;0.63;0.47;;;;;;;27.09;41.63;101815.03;5072243;28;20038;-66
2022/07/27 01:22:16;;;;;;;0.65;0.60;;;;;;;27.10;41.69;101815.00;5070552;28;20032;-66
2022/07/27 01:24:41;;;;;;;0.88;0.60;;;;;;;27.09;41.76;101817.72;5072083;28;20025;-66
2022/07/27 01:27:07;;;;;;;0.77;0.47;;;;;;;27.08;41.59;101814.16;5072183;28;20099;-66
2022/07/27 01:29:34;;;;;;;0.95;0.60;;;;;;;27.09;41.56;101815.91;5054156;28;20097;-66
2022/07/27 01:31:59;;;;;;;1.55;0.65;;;;;;;27.05;41.48;101808.94;5070251;28;20139;-66
2022/07/27 01:34:25;;;;;;;1.02;0.57;;;;;;;27.08;41.51;101819.53;5070839;28;20107;-66
2022/07/27 01:36:50;;;;;;;1.05;0.50;;;;;;;27.08;41.67;101816.84;5057217;28;20032;-66
2022/07/27 01:39:17;;;;;;;0.90;0.50;;;;;;;27.04;41.83;101808.09;5052137;28;20033;-66
2022/07/27 01:41:44;;;;;;;0.98;0.50;;;;;;;27.04;41.62;101810.75;5051295;28;20408;-66
2022/07/27 01:44:09;;;;;;;1.05;0.50;;;;;;;27.04;41.63;101817.91;5051699;28;20438;-66
2022/07/27 01:46:35;;;;;;;1.40;0.50;;;;;;;27.00;41.70;101814.50;5051963;28;20033;-66
2022/07/27 01:49:00;;;;;;;0.80;0.40;;;;;;;27.04;41.63;101809.88;5050455;28;20064;-67
2022/07/27 01:51:26;;;;;;;0.32;0.32;;;;;;;27.02;41.83;101809.94;5050148;28;20043;-66
2022/07/27 01:53:51;;;;;;;0.90;0.50;;;;;;;27.01;41.63;101807.34;5033726;28;20040;-66
2022/07/27 01:56:16;;;;;;;0.60;0.50;;;;;;;27.02;41.57;101812.63;5064316;28;20113;-66
2022/07/27 01:58:42;;;;;;;0.60;0.50;;;;;;;27.01;41.76;101813.56;5071374;28;20033;-67
2022/07/27 02:01:09;;;;;;;0.98;0.52;;;;;;;26.99;41.68;101804.72;5070185;28;20029;-66
2022/07/27 02:03:35;;;;;;;0.60;0.50;;;;;;;26.99;41.71;101803.84;5071448;28;20098;-66
2022/07/27 02:06:01;;;;;;;1.00;0.47;;;;;;;26.99;41.39;101802.03;5071202;28;20028;-66
2022/07/27 02:08:26;;;;;;;0.85;0.50;;;;;;;26.98;41.68;101811.00;5070765;28;20040;-66
2022/07/27 02:13:37;;;;;;;0.80;0.50;;;;;;;26.98;41.74;101804.78;5070548;28;20074;-66
2022/07/27 02:16:02;;;;;;;0.82;0.43;;;;;;;26.99;41.68;101803.84;5070829;28;20772;-66
2022/07/27 02:18:27;;;;;;;0.50;0.40;;;;;;;26.99;41.61;101803.84;5071126;28;20025;-66
2022/07/27 02:20:53;;;;;;;1.08;0.50;;;;;;;26.97;41.75;101795.88;5069982;28;20032;-67
2022/07/27 02:23:18;;;;;;;0.60;0.50;;;;;;;26.97;41.69;101792.31;5069425;28;20163;-66
2022/07/27 02:25:44;;;;;;;0.65;0.40;;;;;;;26.96;41.69;101794.13;5070624;28;20025;-68
2022/07/27 02:28:09;;;;;;;0.60;0.40;;;;;;;26.94;41.92;101795.13;5071063;28;20043;-67
2022/07/27 02:30:35;;;;;;;0.60;0.50;;;;;;;26.93;41.76;101801.41;5069690;28;20185;-66
2022/07/27 02:33:00;;;;;;;1.00;0.50;;;;;;;26.93;41.94;101793.38;5069841;28;20062;-66
2022/07/27 02:35:25;;;;;;;0.75;0.50;;;;;;;26.93;41.69;101793.38;5069832;28;20402;-66
2022/07/27 02:37:51;;;;;;;0.63;0.50;;;;;;;26.95;41.67;101797.75;5070385;28;20483;-66
2022/07/27 02:40:19;;;;;;;0.40;0.40;;;;;;;26.94;41.75;101797.81;5058938;28;20032;-67
2022/07/27 02:42:46;;;;;;;0.60;0.50;;;;;;;26.93;41.77;101798.75;5050597;28;20442;-66
2022/07/27 02:45:12;;;;;;;0.85;0.50;;;;;;;26.93;41.88;101801.41;5050843;28;20055;-66
2022/07/27 02:47:38;;;;;;;0.85;0.50;;;;;;;26.92;41.65;101803.22;5050909;28;20039;-66
2022/07/27 02:50:05;;;;;;;0.60;0.50;;;;;;;26.90;41.70;101807.75;5050571;28;20033;-66
2022/07/27 02:52:31;;;;;;;0.68;0.50;;;;;;;26.91;41.65;101803.28;5050568;28;20036;-66
2022/07/27 02:54:56;;;;;;;1.00;0.50;;;;;;;26.90;41.87;101801.53;5057106;28;20025;-66
2022/07/27 02:57:22;;;;;;;0.75;0.50;;;;;;;26.89;41.83;101808.72;5050663;28;20033;-66
2022/07/27 02:59:47;;;;;;;1.13;0.50;;;;;;;26.90;41.66;101802.41;5059731;28;20078;-67
2022/07/27 03:02:12;;;;;;;0.82;0.50;;;;;;;26.88;41.47;101804.28;5070628;28;20028;-66
2022/07/27 03:04:38;;;;;;;0.73;0.50;;;;;;;26.87;41.92;101810.53;5070516;28;20032;-67
2022/07/27 03:07:03;;;;;;;0.90;0.57;;;;;;;26.88;41.89;101804.28;5069984;28;20055;-66
2022/07/27 03:09:28;;;;;;;0.65;0.50;;;;;;;26.87;41.46;101805.19;5059632;28;20043;-66
2022/07/27 03:11:54;;;;;;;0.98;0.50;;;;;;;26.86;41.68;101803.44;5068384;28;20029;-66
2022/07/27 03:14:19;;;;;;;0.77;0.50;;;;;;;26.85;41.74;101807.03;5068964;28;20028;-66
2022/07/27 03:16:44;;;;;;;0.70;0.50;;;;;;;26.87;41.60;101809.66;5056203;28;20090;-66
2022/07/27 03:19:10;;;;;;;1.55;0.43;;;;;;;26.87;41.60;101805.19;5050250;28;20039;-66
2022/07/27 03:21:36;;;;;;;0.75;0.50;;;;;;;26.86;41.74;101802.56;5047915;28;20029;-66
2022/07/27 03:24:01;;;;;;;0.88;0.50;;;;;;;26.83;41.72;101800.91;5062598;28;20471;-66
2022/07/27 03:26:29;;;;;;;0.73;0.50;;;;;;;26.84;41.67;101799.06;5069882;28;20376;-66
2022/07/27 03:28:55;;;;;;;0.57;0.50;;;;;;;26.83;41.81;101800.91;5069750;28;20395;-67
2022/07/27 03:31:21;;;;;;;0.65;0.50;;;;;;;26.85;41.70;101803.47;5069183;28;20029;-67
2022/07/27 03:33:46;;;;;;;0.73;0.47;;;;;;;26.83;41.84;101806.25;5069727;28;20088;-67
2022/07/27 03:36:11;;;;;;;0.68;0.47;;;;;;;26.81;41.61;101801.88;5069707;28;20036;-66
2022/07/27 03:38:37;;;;;;;1.45;0.60;;;;;;;26.80;41.67;101813.50;5062985;28;20033;-66
2022/07/27 03:41:02;;;;;;;0.75;0.50;;;;;;;26.81;41.57;101813.44;5049130;28;20036;-67
2022/07/27 03:43:28;;;;;;;1.10;0.60;;;;;;;26.80;41.73;101814.38;5049407;28;20531;-66
2022/07/27 03:45:54;;;;;;;0.40;0.40;;;;;;;26.80;41.69;101824.19;5048094;28;20072;-66
2022/07/27 03:48:20;;;;;;;0.77;0.50;;;;;;;26.79;41.61;101822.44;5039358;28;20103;-66
2022/07/27 03:50:45;;;;;;;0.52;0.40;;;;;;;26.76;41.95;101818.13;5069070;28;20231;-67
2022/07/27 03:53:10;;;;;;;0.50;0.50;;;;;;;26.78;41.82;101823.38;5067926;28;20045;-67
2022/07/27 03:55:36;;;;;;;0.85;0.50;;;;;;;26.81;41.71;101825.94;5055366;28;20037;-67
2022/07/27 03:58:01;;;;;;;1.02;0.50;;;;;;;26.78;41.77;101826.06;5049594;28;20035;-66
2022/07/27 04:00:27;;;;;;;0.85;0.50;;;;;;;26.78;41.78;101826.94;5047740;28;20626;-67
2022/07/27 04:02:52;;;;;;;0.63;0.50;;;;;;;26.76;41.76;101823.47;5064249;28;20123;-67
2022/07/27 04:05:19;;;;;;;1.40;0.50;;;;;;;26.77;41.66;101827.00;5065334;28;20523;-66
2022/07/27 04:07:44;;;;;;;0.77;0.43;;;;;;;26.76;41.81;101818.13;5031437;28;20531;-67
2022/07/27 04:10:10;;;;;;;0.73;0.50;;;;;;;26.78;41.59;101826.06;5047995;28;20144;-66
2022/07/27 04:12:36;;;;;;;1.15;0.43;;;;;;;26.73;41.72;101815.53;5049243;28;20532;-66
2022/07/27 04:15:03;;;;;;;0.73;0.45;;;;;;;26.72;41.78;101827.16;5049308;28;20029;-66
2022/07/27 04:17:29;;;;;;;1.25;0.60;;;;;;;26.73;42.02;101820.88;5048740;28;20036;-66
2022/07/27 04:19:54;;;;;;;0.65;0.50;;;;;;;26.73;41.70;101822.69;5046960;28;20021;-66
2022/07/27 04:22:19;;;;;;;0.40;0.40;;;;;;;26.73;41.75;101828.03;5052466;28;20091;-67
2022/07/27 04:24:44;;;;;;;1.05;0.50;;;;;;;26.72;41.77;101828.97;5050691;28;20037;-66
2022/07/27 04:27:10;;;;;;;0.98;0.50;;;;;;;26.70;41.67;101829.06;5047494;28;20539;-66
2022/07/27 04:29:35;;;;;;;0.98;0.50;;;;;;;26.74;41.70;101821.75;5048813;28;20531;-66
2022/07/27 04:32:01;;;;;;;0.55;0.45;;;;;;;26.72;41.81;101824.50;5060120;28;20039;-67
2022/07/27 04:34:26;;;;;;;1.23;0.57;;;;;;;26.72;41.65;101837.00;5067793;28;20461;-66
2022/07/27 04:36:51;;;;;;;1.08;0.60;;;;;;;26.73;41.68;101830.72;5068843;28;20028;-67
2022/07/27 04:39:17;;;;;;;1.27;0.40;;;;;;;26.69;41.82;101826.44;5068046;28;20398;-67
2022/07/27 04:41:42;;;;;;;0.52;0.40;;;;;;;26.69;41.60;101824.63;5067044;28;20502;-66
2022/07/27 04:44:08;;;;;;;0.70;0.50;;;;;;;26.72;41.51;101829.84;5067284;28;20037;-66
2022/07/27 04:46:33;;;;;;;0.60;0.45;;;;;;;26.73;41.52;101825.38;5068824;28;20402;-66
2022/07/27 04:48:58;;;;;;;0.95;0.60;;;;;;;26.74;41.35;101822.63;5050389;28;20034;-67
2022/07/27 04:51:24;;;;;;;0.68;0.50;;;;;;;26.74;41.41;101827.13;5068507;28;20024;-66
2022/07/27 04:53:49;;;;;;;1.67;0.40;;;;;;;26.73;41.52;101828.03;5067331;28;20142;-66
2022/07/27 04:56:14;;;;;;;0.65;0.50;;;;;;;26.74;41.47;101830.66;5049764;28;20045;-66
2022/07/27 04:58:40;;;;;;;1.25;0.50;;;;;;;26.70;41.61;101831.72;5066035;28;20106;-66
2022/07/27 05:01:05;;;;;;;0.88;0.50;;;;;;;26.73;41.59;101838.75;5066554;28;20041;-66
2022/07/27 05:03:31;;;;;;;0.65;0.50;;;;;;;26.75;41.40;101837.75;5048708;28;20029;-66
2022/07/27 05:05:56;;;;;;;0.57;0.50;;;;;;;26.72;41.42;101847.69;5048593;28;20095;-66
2022/07/27 05:08:21;;;;;;;0.60;0.47;;;;;;;26.72;41.49;101850.38;5057033;28;20442;-66
2022/07/27 05:10:47;;;;;;;1.23;0.50;;;;;;;26.72;41.50;101855.72;5068194;28;20029;-66
2022/07/27 05:13:12;;;;;;;1.00;0.50;;;;;;;26.71;41.54;101859.34;5068755;28;20051;-67
2022/07/27 05:15:38;;;;;;;0.70;0.50;;;;;;;26.69;41.44;101862.06;5068714;28;20114;-67
2022/07/27 05:18:04;;;;;;;0.73;0.57;;;;;;;26.70;41.43;101855.81;5068494;28;20097;-66
2022/07/27 05:20:29;;;;;;;0.68;0.50;;;;;;;26.71;41.29;101862.03;5067781;28;20036;-67
2022/07/27 05:22:55;;;;;;;0.95;0.60;;;;;;;26.69;41.33;101866.56;5056680;28;20035;-66
2022/07/27 05:25:24;;;;;;;0.55;0.50;;;;;;;26.69;41.45;101863.88;5048714;28;20549;-66
2022/07/27 05:27:52;;;;;;;0.98;0.50;;;;;;;26.68;41.55;101871.03;5046796;28;20025;-66
2022/07/27 05:30:18;;;;;;;0.77;0.45;;;;;;;26.69;41.48;101874.56;5049496;28;20501;-66
2022/07/27 05:32:44;;;;;;;0.90;0.50;;;;;;;26.69;41.57;101879.94;5050767;28;20085;-66
2022/07/27 05:35:10;;;;;;;0.82;0.52;;;;;;;26.67;41.49;101883.53;5072024;28;20041;-66
2022/07/27 05:37:35;;;;;;;0.90;0.50;;;;;;;26.67;41.54;101888.00;5070447;28;20024;-66
2022/07/27 05:40:03;;;;;;;0.60;0.50;;;;;;;26.69;41.45;101888.81;5071443;28;20819;-66
2022/07/27 05:42:29;;;;;;;0.80;0.50;;;;;;;26.67;41.38;101890.69;5071465;28;20060;-67
2022/07/27 05:44:54;;;;;;;0.80;0.50;;;;;;;26.64;41.29;101890.81;5070543;28;20033;-67
2022/07/27 05:47:20;;;;;;;1.83;0.50;;;;;;;26.65;41.67;101898.75;5072031;28;20104;-67
2022/07/27 05:49:45;;;;;;;0.60;0.57;;;;;;;26.64;41.51;101889.00;5071379;28;20055;-66
2022/07/27 05:52:11;;;;;;;0.60;0.50;;;;;;;26.66;41.51;101895.16;5071361;28;20745;-66
2022/07/27 05:54:36;;;;;;;1.08;0.50;;;;;;;26.64;41.66;101894.34;5064189;28;20395;-66
2022/07/27 05:57:01;;;;;;;0.70;0.50;;;;;;;26.65;41.53;101893.41;5051556;28;20025;-66
2022/07/27 05:59:28;;;;;;;0.80;0.50;;;;;;;26.64;41.61;101891.69;5051639;28;20033;-66
2022/07/27 06:01:53;;;;;;;0.68;0.50;;;;;;;26.65;41.58;101901.44;5051253;28;20033;-66
2022/07/27 06:04:19;;;;;;;0.60;0.50;;;;;;;26.66;41.65;101900.50;5059249;28;20051;-66
2022/07/27 06:09:28;;;;;;;;;;;;;;;26.67;41.57;101906.72;5062670;28;20410;-67
2022/07/27 06:11:53;;;;;;;1.13;0.60;;;;;;;26.62;41.64;101893.53;5065929;28;19921;-66
2022/07/27 06:14:18;;;;;;;1.30;0.50;;;;;;;26.64;41.62;101899.72;5049919;28;20485;-66
2022/07/27 06:16:44;;;;;;;0.73;0.50;;;;;;;26.65;41.69;101917.47;5051101;28;20064;-66
2022/07/27 06:19:09;;;;;;;0.80;0.50;;;;;;;26.63;41.59;101914.00;5051298;28;20028;-67
2022/07/27 06:21:35;;;;;;;1.05;0.60;;;;;;;26.63;41.83;101921.16;5069360;28;20117;-66
2022/07/27 06:24:00;;;;;;;0.63;0.50;;;;;;;26.61;41.88;101915.84;5070907;28;20443;-66
2022/07/27 06:26:25;;;;;;;1.30;0.50;;;;;;;26.61;41.80;101920.31;5071228;28;20032;-66
2022/07/27 06:28:57;;;;;;;0.50;0.50;;;;;;;26.61;41.86;101917.66;5062686;28;20029;-66
2022/07/27 06:31:23;;;;;;;1.15;0.52;;;;;;;26.60;41.86;101911.44;5066953;28;20364;-66
2022/07/27 06:33:48;;;;;;;0.73;0.50;;;;;;;26.60;41.62;101913.22;5070890;28;20377;-66
2022/07/27 06:36:14;;;;;;;0.70;0.47;;;;;;;26.61;41.67;101920.31;5069325;28;20028;-66
2022/07/27 06:38:39;;;;;;;1.15;0.50;;;;;;;26.60;41.75;101918.56;5050768;28;20033;-66
2022/07/27 06:41:04;;;;;;;0.70;0.50;;;;;;;26.58;41.92;101915.09;5050601;28;20057;-66
2022/07/27 06:43:31;;;;;;;0.75;0.50;;;;;;;26.61;41.69;101918.53;5049945;28;20053;-66
2022/07/27 06:45:58;;;;;;;0.75;0.50;;;;;;;26.61;41.68;101923.00;5050814;28;20033;-66
2022/07/27 06:48:24;;;;;;;0.70;0.50;;;;;;;26.63;41.50;101918.47;5049082;28;20068;-66
2022/07/27 06:50:51;;;;;;;0.82;0.40;;;;;;;26.62;41.44;101909.59;5062467;28;20486;-66
2022/07/27 06:53:16;;;;;;;1.33;0.60;;;;;;;26.64;41.62;101912.22;5061024;28;20523;-66
2022/07/27 06:55:42;;;;;;;0.63;0.60;;;;;;;26.61;41.60;101909.63;5048826;28;20113;-66
2022/07/27 06:58:07;;;;;;;0.65;0.50;;;;;;;26.61;41.92;101912.31;5050467;28;20040;-67
2022/07/27 07:00:34;;;;;;;1.10;0.55;;;;;;;26.62;41.45;101914.06;5058284;28;20058;-67
2022/07/27 07:03:02;;;;;;;0.52;0.45;;;;;;;26.62;41.69;101911.38;5070294;28;20100;-66
2022/07/27 07:05:29;;;;;;;0.60;0.50;;;;;;;26.63;41.64;101916.69;5069977;28;20645;-67
2022/07/27 07:07:56;;;;;;;0.85;0.50;;;;;;;26.62;41.63;101922.94;5065786;28;20040;-66
2022/07/27 07:10:22;;;;;;;1.20;0.50;;;;;;;26.63;41.60;101916.69;5052040;28;20029;-66
2022/07/27 07:12:48;;;;;;;1.10;0.60;;;;;;;26.63;41.53;101929.19;5050357;28;20033;-66
2022/07/27 07:15:16;;;;;;;0.98;0.55;;;;;;;26.64;41.33;101923.78;5056763;28;20032;-66
2022/07/27 07:17:41;;;;;;;0.85;0.60;;;;;;;26.65;41.44;101921.97;5068249;28;20038;-66
2022/07/27 07:20:07;;;;;;;0.70;0.50;;;;;;;26.63;41.54;101922.03;5060574;28;20119;-66
2022/07/27 07:22:33;;;;;;;0.70;0.50;;;;;;;26.62;41.54;101922.94;5069729;28;20043;-66
2022/07/27 07:24:59;;;;;;;0.50;0.40;;;;;;;26.59;41.67;101923.06;5053879;28;20121;-66
2022/07/27 07:27:25;;;;;;;0.75;0.50;;;;;;;26.64;41.49;101923.78;5049973;28;20051;-66
2022/07/27 07:29:51;;;;;;;1.27;0.50;;;;;;;26.65;41.47;101921.97;5048532;28;20357;-66
2022/07/27 07:32:21;;;;;;;1.02;0.50;;;;;;;26.69;41.55;101918.25;5049800;28;20032;-66
2022/07/27 07:34:47;;;;;;;0.60;0.50;;;;;;;26.71;41.38;101916.41;5049666;28;20044;-66
2022/07/27 07:37:13;;;;;;;0.90;0.60;;;;;;;26.63;41.69;101923.81;5049418;28;20094;-66
2022/07/27 07:39:38;;;;;;;0.70;0.50;;;;;;;26.66;41.42;101921.91;5066805;28;20429;-66
2022/07/27 07:42:03;;;;;;;0.88;0.50;;;;;;;26.72;41.49;101928.81;5066252;28;20084;-66
2022/07/27 07:44:29;;;;;;;0.82;0.50;;;;;;;26.74;41.10;101926.97;5048219;28;20037;-67
2022/07/27 07:46:55;;;;;;;1.00;0.60;;;;;;;26.75;41.29;101928.72;5049202;28;20236;-66
2022/07/27 07:49:21;;;;;;;0.50;0.50;;;;;;;26.80;41.29;101928.53;5049426;28;20083;-66
2022/07/27 07:51:47;;;;;;;0.63;0.50;;;;;;;26.80;41.14;101925.88;5047679;28;20494;-66
2022/07/27 07:54:12;;;;;;;1.08;0.60;;;;;;;26.83;41.24;101932.00;5048018;28;20170;-66
2022/07/27 07:56:38;;;;;;;0.57;0.50;;;;;;;26.81;41.16;101931.19;5049187;28;20025;-66
2022/07/27 07:59:03;;;;;;;1.10;0.60;;;;;;;26.85;41.24;101937.28;5048182;28;20047;-66
2022/07/27 08:01:29;;;;;;;0.60;0.60;;;;;;;26.86;41.17;101931.00;5048011;28;20036;-66
2022/07/27 08:03:55;;;;;;;0.68;0.50;;;;;;;26.87;41.08;101933.63;5049051;28;20124;-66
2022/07/27 08:06:20;;;;;;;0.70;0.50;;;;;;;26.89;41.22;101939.84;5048984;28;20086;-66
2022/07/27 08:08:45;;;;;;;0.68;0.50;;;;;;;26.91;41.40;101931.72;5059873;28;20119;-66
2022/07/27 08:11:11;;;;;;;0.80;0.50;;;;;;;26.92;41.28;101930.78;5069013;28;20032;-66
2022/07/27 08:13:36;;;;;;;1.83;0.50;;;;;;;26.93;41.45;101930.75;5069054;28;20394;-66
2022/07/27 08:16:01;;;;;;;0.95;0.60;;;;;;;26.95;41.47;101934.25;5066833;28;20036;-66
2022/07/27 08:18:27;;;;;;;0.95;0.60;;;;;;;26.98;41.40;101928.75;5047849;28;20025;-66
2022/07/27 08:20:52;;;;;;;0.70;0.50;;;;;;;27.00;41.21;101936.75;5068816;28;20139;-66
2022/07/27 08:23:18;;;;;;;0.77;0.50;;;;;;;27.00;41.29;101934.06;5067588;28;20056;-66
2022/07/27 08:25:44;;;;;;;1.27;0.50;;;;;;;27.01;41.47;101931.34;5068952;28;20034;-66
2022/07/27 08:28:09;;;;;;;1.08;0.60;;;;;;;27.04;41.53;101933.00;5067948;28;20123;-66
2022/07/27 08:30:34;;;;;;;1.23;0.60;;;;;;;27.04;41.38;101935.69;5050660;28;20043;-67
2022/07/27 08:33:02;;;;;;;0.90;0.60;;;;;;;27.05;41.32;101937.44;5068660;28;20039;-67
2022/07/27 08:35:29;;;;;;;0.60;0.50;;;;;;;27.04;41.38;101939.22;5069090;28;20023;-66
2022/07/27 08:37:54;;;;;;;1.02;0.60;;;;;;;27.02;41.57;101935.72;5067578;28;20039;-66
2022/07/27 08:40:20;;;;;;;0.73;0.52;;;;;;;27.05;41.33;101937.44;5046706;28;20029;-67
2022/07/27 08:42:46;;;;;;;0.60;0.50;;;;;;;27.09;41.51;101940.84;5048890;28;20060;-66
2022/07/27 08:45:14;;;;;;;0.60;0.57;;;;;;;27.10;41.49;101945.28;5048675;28;20040;-66
2022/07/27 08:47:40;;;;;;;0.40;0.40;;;;;;;27.10;41.18;101943.47;5048670;28;20475;-66
2022/07/27 08:50:22;;;;;;;0.63;0.55;;;;;;;27.09;41.41;101944.41;5058410;28;20028;-66
2022/07/27 08:53:02;;;;;;;0.77;0.52;;;;;;;27.10;41.49;101945.28;5047186;28;20060;-67
2022/07/27 08:55:29;;;;;;;0.60;0.50;;;;;;;27.10;41.29;101950.63;5047540;28;20025;-66
2022/07/27 08:57:54;;;;;;;0.63;0.50;;;;;;;27.09;41.38;101954.22;5065893;28;20427;-66
2022/07/27 09:00:20;;;;;;;1.02;0.60;;;;;;;27.09;41.50;101949.75;5068431;28;20107;-66
2022/07/27 09:02:46;;;;;;;0.75;0.50;;;;;;;27.08;41.33;101957.88;5068432;28;20032;-66
2022/07/27 09:05:12;;;;;;;0.80;0.50;;;;;;;27.07;41.41;101964.16;5069157;28;20067;-66
2022/07/27 09:07:38;;;;;;;0.77;0.45;;;;;;;27.06;41.42;101960.59;5048816;28;20040;-66
2022/07/27 09:10:04;;;;;;;0.90;0.60;;;;;;;27.05;41.42;101964.19;5072118;28;20030;-66
2022/07/27 09:12:31;;;;;;;0.60;0.50;;;;;;;27.04;41.40;101960.66;5071026;28;20032;-66
2022/07/27 09:15:23;;;;;;;0.75;0.50;;;;;;;27.04;41.32;101957.09;5071811;28;20033;-66
2022/07/27 09:17:49;;;;;;;0.70;0.60;;;;;;;27.05;41.39;101958.84;5069243;28;20506;-66
2022/07/27 09:20:16;;;;;;;0.50;0.50;;;;;;;27.04;41.30;101957.09;5072037;28;20056;-66
2022/07/27 09:22:51;;;;;;;0.90;0.60;;;;;;;27.05;41.31;101964.19;5060234;28;20025;-66
2022/07/27 09:25:18;;;;;;;0.75;0.60;;;;;;;27.06;41.21;101963.28;5052053;28;20029;-66
2022/07/27 09:27:45;;;;;;;0.70;0.60;;;;;;;27.04;41.34;101960.66;5066891;28;20724;-66
2022/07/27 09:30:14;;;;;;;1.42;0.65;;;;;;;27.04;41.24;101965.13;5070541;28;20111;-66
2022/07/27 09:32:57;;;;;;;1.10;0.70;;;;;;;27.04;41.38;101963.31;5061091;28;20428;-66
2022/07/27 09:35:28;;;;;;;0.90;0.50;;;;;;;27.08;41.28;101968.56;5050441;28;20127;-66
2022/07/27 09:37:56;;;;;;;1.08;0.60;;;;;;;27.10;41.29;101967.56;5052543;28;20499;-66
2022/07/27 09:40:22;;;;;;;1.20;0.60;;;;;;;27.12;41.07;101960.38;5071522;28;20085;-66
2022/07/27 09:43:07;;;;;;;0.95;0.60;;;;;;;27.14;40.97;101960.31;5059909;28;20048;-66
2022/07/27 09:45:34;;;;;;;0.73;0.60;;;;;;;27.16;41.18;101964.66;5061600;28;20035;-66
2022/07/27 09:48:09;;;;;;;1.25;0.60;;;;;;;27.15;41.01;101957.56;5071105;28;20032;-66
2022/07/27 09:50:36;;;;;;;0.73;0.60;;;;;;;27.17;41.24;101961.06;5071737;28;20401;-66
2022/07/27 09:53:32;;;;;;;1.08;0.70;;;;;;;27.18;41.15;101964.59;5071387;28;20036;-66
2022/07/27 09:55:58;;;;;;;0.80;0.50;;;;;;;27.20;40.97;101962.75;5059448;28;20513;-66
2022/07/27 09:58:44;;;;;;;1.15;0.50;;;;;;;27.19;40.95;101966.34;5068993;28;20062;-66
2022/07/27 10:01:39;;;;;;;0.65;0.50;;;;;;;27.21;41.36;101968.03;5059740;28;20051;-67
2022/07/27 10:04:06;;;;;;;0.80;0.60;;;;;;;27.20;41.26;101963.59;5054725;28;20045;-66
2022/07/27 10:06:32;;;;;;;0.85;0.60;;;;;;;27.21;41.06;101968.03;5061256;28;20033;-68
2022/07/27 10:08:59;;;;;;;1.60;0.70;;;;;;;27.20;41.28;101971.63;5050978;28;20031;-67
2022/07/27 10:11:25;;;;;;;0.70;0.60;;;;;;;27.21;41.13;101968.03;5066431;28;20367;-66
2022/07/27 10:13:53;;;;;;;0.88;0.52;;;;;;;27.23;41.11;101971.53;5062463;28;20033;-66
2022/07/27 10:16:27;;;;;;;0.98;0.70;;;;;;;27.25;41.09;101969.69;5053209;28;20025;-66
2022/07/27 10:19:04;;;;;;;0.80;0.50;;;;;;;27.24;40.86;101975.06;5067796;28;20054;-66
2022/07/27 10:21:31;;;;;;;1.33;0.70;;;;;;;27.25;41.04;101977.72;5069256;28;20561;-67
2022/07/27 10:23:58;;;;;;;0.65;0.50;;;;;;;27.26;41.11;101973.22;5055796;28;20060;-67
2022/07/27 10:26:23;;;;;;;1.27;0.60;;;;;;;27.27;41.06;101974.94;5070063;28;20028;-65
2022/07/27 10:28:59;;;;;;;1.00;0.57;;;;;;;27.28;40.91;101972.22;5062229;28;20093;-66
2022/07/27 10:31:36;;;;;;;1.27;0.60;;;;;;;27.26;41.01;101968.75;5069043;28;20499;-66
2022/07/27 10:34:04;;;;;;;0.75;0.60;;;;;;;27.27;40.95;101974.94;5070497;28;20356;-66
2022/07/27 10:36:30;;;;;;;1.25;0.60;;;;;;;27.27;40.82;101975.81;5066729;28;20032;-66
2022/07/27 10:38:57;;;;;;;0.70;0.50;;;;;;;27.26;41.05;101976.78;5070013;28;20036;-66
2022/07/27 10:41:29;;;;;;;2.42;0.60;;;;;;;27.27;40.82;101978.50;5056541;28;20025;-66
2022/07/27 10:44:24;;;;;;;0.88;0.60;;;;;;;27.29;41.00;101981.13;5050763;28;20617;-67
2022/07/27 10:46:54;;;;;;;1.40;0.63;;;;;;;27.30;40.83;101980.19;5060520;28;20024;-66
2022/07/27 10:49:22;;;;;;;1.48;0.65;;;;;;;27.31;40.86;101985.50;5064179;28;20032;-67
2022/07/27 10:51:48;;;;;;;0.90;0.65;;;;;;;27.32;40.73;101986.38;5057996;28;20039;-66
2022/07/27 10:54:25;;;;;;;0.85;0.57;;;;;;;27.34;40.99;101981.81;5048169;28;20040;-66
2022/07/27 10:56:54;;;;;;;0.95;0.50;;;;;;;27.35;40.57;101980.88;5050352;28;20055;-66
2022/07/27 10:59:38;;;;;;;0.90;0.70;;;;;;;27.36;40.83;101974.59;5053299;28;20028;-66
2022/07/27 11:02:15;;;;;;;1.02;0.50;;;;;;;27.37;40.73;101973.69;5060870;28;20376;-66
2022/07/27 11:04:49;;;;;;;0.65;0.55;;;;;;;27.37;41.03;101977.22;5069657;28;20024;-66
2022/07/27 11:07:17;;;;;;;0.90;0.60;;;;;;;27.37;40.81;101982.59;5056933;28;20063;-66
2022/07/27 11:09:44;;;;;;;0.88;0.70;;;;;;;27.37;40.77;101979.03;5054400;28;20419;-66
2022/07/27 11:12:11;;;;;;;1.08;0.70;;;;;;;27.37;40.58;101985.25;5055683;28;20123;-66
2022/07/27 11:14:48;;;;;;;1.27;0.70;;;;;;;27.35;40.88;101973.72;5049625;28;20120;-66
2022/07/27 11:17:16;;;;;;;0.75;0.57;;;;;;;27.37;40.58;101969.19;5059834;28;20027;-67
2022/07/27 11:19:42;;;;;;;1.33;0.70;;;;;;;27.36;40.92;101972.81;5060766;28;20040;-66
2022/07/27 11:22:08;;;;;;;0.65;0.50;;;;;;;27.38;40.79;101973.63;5049154;28;20044;-66
2022/07/27 11:24:35;;;;;;;0.60;0.50;;;;;;;27.36;40.90;101971.94;5061875;28;20807;-66
2022/07/27 11:27:02;;;;;;;0.75;0.50;;;;;;;27.37;40.56;101965.66;5067280;28;20032;-66
2022/07/27 11:29:33;;;;;;;1.60;0.60;;;;;;;27.36;40.80;101972.81;5058475;28;20482;-66